ESGJ/JKG METAR and TAF weather

Enter ICAO airport designator
Station Type Date Time Source
ESGJ METAR 2021/02/25 01:50 UTC NOAA

ESGJ 250150Z 22013KT 9999 SCT026 BKN042 08/07 Q1018 R19/29//70


Station Type Date Time Source
ESGJ Decoded METAR 2021/02/25 01:50 UTC NOAA

Jonkoping Flygplats, Sweden (ESGJ) 57-46N 014-05E 232M
Feb 24, 2021 - 08:50 PM EST / 2021.02.25 0150 UTC
Wind: from the SW (220 degrees) at 15 MPH (13 KT):0
Visibility: greater than 7 mile(s):0
Sky conditions: mostly cloudy
Temperature: 46 F (8 C)
Dew Point: 44 F (7 C)
Relative Humidity: 93%
Pressure (altimeter): 30.06 in. Hg (1018 hPa)
ob: ESGJ 250150Z 22013KT 9999 SCT026 BKN042 08/07 Q1018 R19/29//70
cycle: 2

Station Type Date Time Source
ESGJ TAF 2015/05/01 23:06 UTC NOAA

TAF TAF ESGJ 302359Z 3023/0101 CNL

Example: see airport list